Terminal Aerodrome Forecast
Issued by NWS

Home | Current Version | Previous Version | Text Only | Print | Product List | Glossary On
Versions: 1 2 3 4 5 6 7 8 9 10 11 12
000
FTUS43 KMQT 291700
TAFIWD
TAF
KIWD 291731Z 2918/3018 21006KT P6SM -SHRA BKN010
     FM300400 34005KT 3SM SHRA BR BKN005
      AMD NOT SKED=

USA.gov is the U.S. government's official web portal to all federal, state and local government web resources and services.